sensor_id;sensor_type;location;lat;lon;timestamp;pressure;altitude;pressure_sealevel;temperature;humidity
62038;BME280;47991;42.974;12.082;2023-07-31T00:02:01;97559.46;;;18.53;64.51
62038;BME280;47991;42.974;12.082;2023-07-31T00:04:28;97563.33;;;18.45;64.20
62038;BME280;47991;42.974;12.082;2023-07-31T00:06:55;97562.42;;;18.40;64.37
62038;BME280;47991;42.974;12.082;2023-07-31T00:09:22;97556.86;;;18.34;64.94
62038;BME280;47991;42.974;12.082;2023-07-31T00:11:48;97555.70;;;18.27;65.18
62038;BME280;47991;42.974;12.082;2023-07-31T00:14:15;97557.60;;;18.23;65.40
62038;BME280;47991;42.974;12.082;2023-07-31T00:16:42;97558.38;;;18.22;65.40
62038;BME280;47991;42.974;12.082;2023-07-31T00:19:09;97562.31;;;18.22;65.54
62038;BME280;47991;42.974;12.082;2023-07-31T00:21:36;97563.81;;;18.26;65.38
62038;BME280;47991;42.974;12.082;2023-07-31T00:24:02;97563.00;;;18.28;65.35
62038;BME280;47991;42.974;12.082;2023-07-31T00:26:29;97562.70;;;18.30;65.41
62038;BME280;47991;42.974;12.082;2023-07-31T00:28:56;97563.63;;;18.29;65.33
62038;BME280;47991;42.974;12.082;2023-07-31T00:31:24;97562.98;;;18.40;65.33
62038;BME280;47991;42.974;12.082;2023-07-31T00:33:51;97564.43;;;18.28;65.49
62038;BME280;47991;42.974;12.082;2023-07-31T00:36:18;97565.72;;;18.22;66.25
62038;BME280;47991;42.974;12.082;2023-07-31T00:38:44;97560.83;;;18.17;66.51
62038;BME280;47991;42.974;12.082;2023-07-31T00:41:11;97561.14;;;18.15;66.57
62038;BME280;47991;42.974;12.082;2023-07-31T00:43:38;97561.10;;;18.04;66.79
62038;BME280;47991;42.974;12.082;2023-07-31T00:46:05;97560.71;;;17.98;66.39
62038;BME280;47991;42.974;12.082;2023-07-31T00:48:33;97561.64;;;17.95;66.21
62038;BME280;47991;42.974;12.082;2023-07-31T00:51:00;97562.38;;;17.86;66.83
62038;BME280;47991;42.974;12.082;2023-07-31T00:53:29;97558.34;;;17.75;66.88
62038;BME280;47991;42.974;12.082;2023-07-31T00:55:57;97557.84;;;17.69;67.39
62038;BME280;47991;42.974;12.082;2023-07-31T00:58:24;97560.60;;;17.64;67.08
62038;BME280;47991;42.974;12.082;2023-07-31T01:00:52;97558.39;;;17.59;67.67
62038;BME280;47991;42.974;12.082;2023-07-31T01:03:19;97557.75;;;17.52;67.72
62038;BME280;47991;42.974;12.082;2023-07-31T01:09:00;97554.44;;;17.39;68.31
62038;BME280;47991;42.974;12.082;2023-07-31T01:11:48;97546.84;;;17.31;68.84
62038;BME280;47991;42.974;12.082;2023-07-31T01:14:18;97547.92;;;17.31;68.81
62038;BME280;47991;42.974;12.082;2023-07-31T01:16:45;97543.95;;;17.29;68.92
62038;BME280;47991;42.974;12.082;2023-07-31T01:19:14;97550.31;;;17.30;68.72
62038;BME280;47991;42.974;12.082;2023-07-31T01:22:01;97546.40;;;17.33;68.60
62038;BME280;47991;42.974;12.082;2023-07-31T01:24:54;97544.49;;;17.35;68.67
62038;BME280;47991;42.974;12.082;2023-07-31T01:27:25;97541.16;;;17.37;68.75
62038;BME280;47991;42.974;12.082;2023-07-31T01:30:05;97534.46;;;17.38;68.73
62038;BME280;47991;42.974;12.082;2023-07-31T01:32:40;97535.08;;;17.40;68.74
62038;BME280;47991;42.974;12.082;2023-07-31T01:35:07;97534.30;;;17.41;68.54
62038;BME280;47991;42.974;12.082;2023-07-31T01:37:35;97532.13;;;17.41;68.21
62038;BME280;47991;42.974;12.082;2023-07-31T01:40:03;97528.71;;;17.45;68.29
62038;BME280;47991;42.974;12.082;2023-07-31T01:42:30;97527.00;;;17.41;68.85
62038;BME280;47991;42.974;12.082;2023-07-31T01:45:16;97522.91;;;17.31;68.95
62038;BME280;47991;42.974;12.082;2023-07-31T01:47:44;97520.21;;;17.29;69.29
62038;BME280;47991;42.974;12.082;2023-07-31T01:50:11;97520.93;;;17.25;69.34
62038;BME280;47991;42.974;12.082;2023-07-31T01:52:38;97517.55;;;17.19;69.31
62038;BME280;47991;42.974;12.082;2023-07-31T01:55:05;97518.27;;;17.19;69.59
62038;BME280;47991;42.974;12.082;2023-07-31T01:57:31;97517.19;;;17.13;70.15
62038;BME280;47991;42.974;12.082;2023-07-31T01:59:58;97518.85;;;17.06;70.01
62038;BME280;47991;42.974;12.082;2023-07-31T02:02:28;97514.94;;;17.03;70.25
62038;BME280;47991;42.974;12.082;2023-07-31T02:04:55;97520.95;;;17.00;70.10
62038;BME280;47991;42.974;12.082;2023-07-31T02:07:22;97517.06;;;17.03;69.90
62038;BME280;47991;42.974;12.082;2023-07-31T02:09:49;97515.12;;;17.03;69.80
62038;BME280;47991;42.974;12.082;2023-07-31T02:12:16;97509.81;;;16.96;70.26
62038;BME280;47991;42.974;12.082;2023-07-31T02:14:43;97510.05;;;16.88;70.56
62038;BME280;47991;42.974;12.082;2023-07-31T02:17:10;97506.63;;;16.76;71.18
62038;BME280;47991;42.974;12.082;2023-07-31T02:19:37;97518.16;;;16.68;71.42
62038;BME280;47991;42.974;12.082;2023-07-31T02:22:04;97520.95;;;16.66;71.21
62038;BME280;47991;42.974;12.082;2023-07-31T02:24:31;97525.09;;;16.65;71.38
62038;BME280;47991;42.974;12.082;2023-07-31T02:26:58;97522.83;;;16.71;70.93
62038;BME280;47991;42.974;12.082;2023-07-31T02:29:25;97518.42;;;16.70;71.26
62038;BME280;47991;42.974;12.082;2023-07-31T02:31:52;97521.95;;;16.64;71.61
62038;BME280;47991;42.974;12.082;2023-07-31T02:34:19;97524.62;;;16.61;71.75
62038;BME280;47991;42.974;12.082;2023-07-31T02:36:46;97526.84;;;16.62;71.48
62038;BME280;47991;42.974;12.082;2023-07-31T02:39:13;97531.08;;;16.64;71.70
62038;BME280;47991;42.974;12.082;2023-07-31T02:41:40;97528.68;;;16.62;71.79
62038;BME280;47991;42.974;12.082;2023-07-31T02:44:06;97530.33;;;16.64;71.79
62038;BME280;47991;42.974;12.082;2023-07-31T02:46:33;97527.08;;;16.65;72.40
62038;BME280;47991;42.974;12.082;2023-07-31T02:49:00;97525.61;;;16.59;72.40
62038;BME280;47991;42.974;12.082;2023-07-31T02:51:27;97522.03;;;16.50;72.64
62038;BME280;47991;42.974;12.082;2023-07-31T02:53:54;97523.80;;;16.44;72.94
62038;BME280;47991;42.974;12.082;2023-07-31T02:56:21;97528.63;;;16.40;72.69
62038;BME280;47991;42.974;12.082;2023-07-31T02:58:48;97527.23;;;16.40;73.76
62038;BME280;47991;42.974;12.082;2023-07-31T03:01:15;97529.13;;;16.35;73.21
62038;BME280;47991;42.974;12.082;2023-07-31T03:03:42;97525.84;;;16.33;73.05
62038;BME280;47991;42.974;12.082;2023-07-31T03:06:08;97526.84;;;16.28;73.56
62038;BME280;47991;42.974;12.082;2023-07-31T03:08:35;97524.99;;;16.22;73.99
62038;BME280;47991;42.974;12.082;2023-07-31T03:11:02;97525.75;;;16.18;74.21
62038;BME280;47991;42.974;12.082;2023-07-31T03:13:29;97525.04;;;16.15;74.58
62038;BME280;47991;42.974;12.082;2023-07-31T03:15:56;97521.89;;;16.10;74.32
62038;BME280;47991;42.974;12.082;2023-07-31T03:18:23;97522.23;;;16.07;74.60
62038;BME280;47991;42.974;12.082;2023-07-31T03:20:50;97518.52;;;16.03;75.12
62038;BME280;47991;42.974;12.082;2023-07-31T03:23:16;97518.09;;;16.01;75.17
62038;BME280;47991;42.974;12.082;2023-07-31T03:25:57;97521.04;;;16.00;75.40
62038;BME280;47991;42.974;12.082;2023-07-31T03:28:24;97517.94;;;16.01;74.82
62038;BME280;47991;42.974;12.082;2023-07-31T03:30:52;97523.33;;;16.00;74.82
62038;BME280;47991;42.974;12.082;2023-07-31T03:33:19;97526.28;;;15.99;75.73
62038;BME280;47991;42.974;12.082;2023-07-31T03:35:46;97523.98;;;15.98;75.62
62038;BME280;47991;42.974;12.082;2023-07-31T03:38:13;97523.28;;;16.01;76.16
62038;BME280;47991;42.974;12.082;2023-07-31T03:40:40;97522.11;;;16.06;75.55
62038;BME280;47991;42.974;12.082;2023-07-31T03:43:07;97524.14;;;16.11;75.23
62038;BME280;47991;42.974;12.082;2023-07-31T03:45:34;97528.96;;;16.12;75.67
62038;BME280;47991;42.974;12.082;2023-07-31T03:48:03;97530.67;;;16.13;75.94
62038;BME280;47991;42.974;12.082;2023-07-31T03:50:30;97534.65;;;16.12;75.63
62038;BME280;47991;42.974;12.082;2023-07-31T03:52:57;97538.55;;;16.16;75.72
62038;BME280;47991;42.974;12.082;2023-07-31T03:55:24;97538.70;;;16.22;75.17
62038;BME280;47991;42.974;12.082;2023-07-31T03:57:51;97538.16;;;16.26;75.44
62038;BME280;47991;42.974;12.082;2023-07-31T04:00:18;97536.23;;;16.29;74.83
62038;BME280;47991;42.974;12.082;2023-07-31T04:02:44;97537.61;;;16.26;74.94
62038;BME280;47991;42.974;12.082;2023-07-31T04:05:11;97538.27;;;16.21;74.91
62038;BME280;47991;42.974;12.082;2023-07-31T04:07:38;97536.39;;;16.19;74.98
62038;BME280;47991;42.974;12.082;2023-07-31T04:10:06;97537.34;;;16.12;75.30
62038;BME280;47991;42.974;12.082;2023-07-31T04:12:33;97537.99;;;16.06;75.57
62038;BME280;47991;42.974;12.082;2023-07-31T04:15:00;97534.39;;;16.03;76.00
62038;BME280;47991;42.974;12.082;2023-07-31T04:17:27;97536.42;;;16.02;75.53
62038;BME280;47991;42.974;12.082;2023-07-31T04:19:53;97532.83;;;16.00;76.02
62038;BME280;47991;42.974;12.082;2023-07-31T04:22:20;97528.81;;;16.01;75.89
62038;BME280;47991;42.974;12.082;2023-07-31T04:24:47;97522.92;;;16.08;75.75
62038;BME280;47991;42.974;12.082;2023-07-31T04:27:14;97522.55;;;16.15;75.49
62038;BME280;47991;42.974;12.082;2023-07-31T04:29:41;97517.48;;;16.19;76.03
62038;BME280;47991;42.974;12.082;2023-07-31T04:32:09;97514.77;;;16.23;76.55
62038;BME280;47991;42.974;12.082;2023-07-31T04:34:36;97513.73;;;16.39;76.37
62038;BME280;47991;42.974;12.082;2023-07-31T04:37:03;97510.76;;;16.60;75.47
62038;BME280;47991;42.974;12.082;2023-07-31T04:39:30;97502.98;;;16.68;75.71
62038;BME280;47991;42.974;12.082;2023-07-31T04:41:56;97503.84;;;16.78;75.07
62038;BME280;47991;42.974;12.082;2023-07-31T04:44:23;97499.40;;;16.93;75.09
62038;BME280;47991;42.974;12.082;2023-07-31T04:46:50;97500.37;;;17.08;74.73
62038;BME280;47991;42.974;12.082;2023-07-31T04:49:17;97497.95;;;17.24;74.53
62038;BME280;47991;42.974;12.082;2023-07-31T04:51:45;97500.07;;;17.43;74.00
62038;BME280;47991;42.974;12.082;2023-07-31T04:54:12;97502.12;;;17.56;73.59
62038;BME280;47991;42.974;12.082;2023-07-31T04:56:41;97501.50;;;17.66;73.59
62038;BME280;47991;42.974;12.082;2023-07-31T04:59:08;97500.59;;;17.78;73.02
62038;BME280;47991;42.974;12.082;2023-07-31T05:01:35;97497.40;;;17.90;72.94
62038;BME280;47991;42.974;12.082;2023-07-31T05:04:02;97493.74;;;18.03;72.61
62038;BME280;47991;42.974;12.082;2023-07-31T05:06:28;97488.04;;;18.19;72.35
62038;BME280;47991;42.974;12.082;2023-07-31T05:08:55;97484.69;;;18.33;72.19
62038;BME280;47991;42.974;12.082;2023-07-31T05:11:22;97480.51;;;18.45;72.06
62038;BME280;47991;42.974;12.082;2023-07-31T05:13:49;97478.10;;;18.65;71.68
62038;BME280;47991;42.974;12.082;2023-07-31T05:16:16;97473.82;;;19.24;70.94
62038;BME280;47991;42.974;12.082;2023-07-31T05:18:43;97470.34;;;20.23;68.32
62038;BME280;47991;42.974;12.082;2023-07-31T05:21:10;97465.98;;;20.63;66.80
62038;BME280;47991;42.974;12.082;2023-07-31T05:23:37;97466.66;;;20.81;66.03
62038;BME280;47991;42.974;12.082;2023-07-31T05:26:04;97475.41;;;21.08;65.78
62038;BME280;47991;42.974;12.082;2023-07-31T05:28:34;97475.48;;;22.33;62.94
62038;BME280;47991;42.974;12.082;2023-07-31T05:31:02;97475.20;;;23.50;60.01
62038;BME280;47991;42.974;12.082;2023-07-31T05:33:30;97476.30;;;24.47;57.05
62038;BME280;47991;42.974;12.082;2023-07-31T05:35:57;97480.40;;;25.47;54.15
62038;BME280;47991;42.974;12.082;2023-07-31T05:38:24;97482.03;;;26.49;52.46
62038;BME280;47991;42.974;12.082;2023-07-31T05:40:51;97482.48;;;27.45;50.70
62038;BME280;47991;42.974;12.082;2023-07-31T05:43:18;97481.45;;;28.35;49.03
62038;BME280;47991;42.974;12.082;2023-07-31T05:45:45;97483.36;;;29.04;46.66
62038;BME280;47991;42.974;12.082;2023-07-31T05:48:12;97485.39;;;29.70;46.67
62038;BME280;47991;42.974;12.082;2023-07-31T05:50:38;97490.55;;;30.06;44.56
62038;BME280;47991;42.974;12.082;2023-07-31T05:53:07;97487.20;;;30.58;42.54
62038;BME280;47991;42.974;12.082;2023-07-31T05:55:34;97480.85;;;30.94;41.39
62038;BME280;47991;42.974;12.082;2023-07-31T05:58:01;97479.31;;;31.23;41.20
62038;BME280;47991;42.974;12.082;2023-07-31T06:00:28;97480.84;;;31.39;41.12
62038;BME280;47991;42.974;12.082;2023-07-31T06:02:56;97478.49;;;31.22;39.94
62038;BME280;47991;42.974;12.082;2023-07-31T06:05:23;97484.11;;;30.69;40.53
62038;BME280;47991;42.974;12.082;2023-07-31T06:07:50;97480.59;;;30.45;42.08
62038;BME280;47991;42.974;12.082;2023-07-31T06:10:17;97482.31;;;30.41;42.02
62038;BME280;47991;42.974;12.082;2023-07-31T06:12:44;97486.23;;;30.18;42.95
62038;BME280;47991;42.974;12.082;2023-07-31T06:15:11;97486.10;;;29.65;43.50
62038;BME280;47991;42.974;12.082;2023-07-31T06:17:38;97484.10;;;29.07;44.48
62038;BME280;47991;42.974;12.082;2023-07-31T06:20:06;97484.32;;;28.68;45.88
62038;BME280;47991;42.974;12.082;2023-07-31T06:22:33;97488.69;;;28.40;46.87
62038;BME280;47991;42.974;12.082;2023-07-31T06:25:00;97492.08;;;27.89;48.45
62038;BME280;47991;42.974;12.082;2023-07-31T06:27:27;97493.83;;;27.66;48.71
62038;BME280;47991;42.974;12.082;2023-07-31T06:29:54;97494.09;;;27.38;48.97
62038;BME280;47991;42.974;12.082;2023-07-31T06:32:21;97500.13;;;27.23;49.82
62038;BME280;47991;42.974;12.082;2023-07-31T06:34:48;97502.30;;;27.27;49.82
62038;BME280;47991;42.974;12.082;2023-07-31T06:37:15;97499.75;;;27.16;50.44
62038;BME280;47991;42.974;12.082;2023-07-31T06:39:42;97497.36;;;27.02;50.71
62038;BME280;47991;42.974;12.082;2023-07-31T06:42:09;97500.39;;;26.90;51.12
62038;BME280;47991;42.974;12.082;2023-07-31T06:45:00;97503.65;;;26.77;51.74
62038;BME280;47991;42.974;12.082;2023-07-31T06:47:27;97508.72;;;26.72;51.87
62038;BME280;47991;42.974;12.082;2023-07-31T06:49:55;97509.42;;;26.92;51.54
62038;BME280;47991;42.974;12.082;2023-07-31T06:52:22;97506.41;;;26.99;51.11
62038;BME280;47991;42.974;12.082;2023-07-31T06:55:09;97506.32;;;27.09;50.97
62038;BME280;47991;42.974;12.082;2023-07-31T06:57:44;97510.70;;;27.16;49.40
62038;BME280;47991;42.974;12.082;2023-07-31T07:00:12;97516.08;;;26.91;48.78
62038;BME280;47991;42.974;12.082;2023-07-31T07:02:39;97510.05;;;26.91;50.03
62038;BME280;47991;42.974;12.082;2023-07-31T07:05:07;97505.61;;;27.10;49.43
62038;BME280;47991;42.974;12.082;2023-07-31T07:07:34;97506.90;;;27.32;48.62
62038;BME280;47991;42.974;12.082;2023-07-31T07:10:02;97502.83;;;27.54;47.76
62038;BME280;47991;42.974;12.082;2023-07-31T07:12:31;97503.34;;;27.67;47.02
62038;BME280;47991;42.974;12.082;2023-07-31T07:14:58;97502.10;;;27.58;48.07
62038;BME280;47991;42.974;12.082;2023-07-31T07:17:28;97498.36;;;27.66;48.67
62038;BME280;47991;42.974;12.082;2023-07-31T07:19:59;97499.84;;;27.48;49.42
62038;BME280;47991;42.974;12.082;2023-07-31T07:22:26;97502.34;;;27.54;48.85
62038;BME280;47991;42.974;12.082;2023-07-31T07:24:53;97497.89;;;27.67;48.69
62038;BME280;47991;42.974;12.082;2023-07-31T07:27:21;97497.69;;;27.85;47.83
62038;BME280;47991;42.974;12.082;2023-07-31T07:29:50;97502.90;;;27.77;47.26
62038;BME280;47991;42.974;12.082;2023-07-31T07:32:19;97500.17;;;27.26;46.05
62038;BME280;47991;42.974;12.082;2023-07-31T07:34:47;97499.20;;;27.13;47.20
62038;BME280;47991;42.974;12.082;2023-07-31T07:37:14;97498.71;;;27.12;46.93
62038;BME280;47991;42.974;12.082;2023-07-31T07:39:42;97496.85;;;27.33;46.74
62038;BME280;47991;42.974;12.082;2023-07-31T07:42:09;97494.98;;;27.62;46.91
62038;BME280;47991;42.974;12.082;2023-07-31T07:44:36;97493.81;;;27.73;46.72
62038;BME280;47991;42.974;12.082;2023-07-31T07:47:03;97497.98;;;27.88;46.44
62038;BME280;47991;42.974;12.082;2023-07-31T07:49:33;97495.10;;;28.07;45.14
62038;BME280;47991;42.974;12.082;2023-07-31T07:52:01;97497.45;;;28.05;45.12
62038;BME280;47991;42.974;12.082;2023-07-31T07:54:28;97495.52;;;27.97;45.16
62038;BME280;47991;42.974;12.082;2023-07-31T07:56:56;97494.20;;;28.00;46.13
62038;BME280;47991;42.974;12.082;2023-07-31T07:59:24;97490.91;;;28.23;46.38
62038;BME280;47991;42.974;12.082;2023-07-31T08:01:50;97483.79;;;28.44;46.32
62038;BME280;47991;42.974;12.082;2023-07-31T08:04:17;97482.36;;;28.62;46.30
62038;BME280;47991;42.974;12.082;2023-07-31T08:06:44;97489.39;;;28.63;45.40
62038;BME280;47991;42.974;12.082;2023-07-31T08:09:11;97484.00;;;28.45;44.72
62038;BME280;47991;42.974;12.082;2023-07-31T08:11:38;97489.11;;;28.36;45.51
62038;BME280;47991;42.974;12.082;2023-07-31T08:14:06;97485.42;;;28.57;46.18
62038;BME280;47991;42.974;12.082;2023-07-31T08:16:33;97486.98;;;28.92;45.92
62038;BME280;47991;42.974;12.082;2023-07-31T08:19:00;97487.60;;;29.22;45.85
62038;BME280;47991;42.974;12.082;2023-07-31T08:21:26;97487.59;;;29.37;45.79
62038;BME280;47991;42.974;12.082;2023-07-31T08:23:53;97489.95;;;29.39;45.45
62038;BME280;47991;42.974;12.082;2023-07-31T08:26:23;97492.75;;;29.43;45.67
62038;BME280;47991;42.974;12.082;2023-07-31T08:28:49;97492.45;;;29.53;45.42
62038;BME280;47991;42.974;12.082;2023-07-31T08:31:19;97485.14;;;29.62;45.07
62038;BME280;47991;42.974;12.082;2023-07-31T08:33:46;97488.52;;;29.68;45.05
62038;BME280;47991;42.974;12.082;2023-07-31T08:36:12;97484.20;;;29.74;44.22
62038;BME280;47991;42.974;12.082;2023-07-31T08:38:39;97478.88;;;29.73;43.98
62038;BME280;47991;42.974;12.082;2023-07-31T08:41:06;97479.10;;;29.89;44.01
62038;BME280;47991;42.974;12.082;2023-07-31T08:43:33;97481.13;;;30.09;42.93
62038;BME280;47991;42.974;12.082;2023-07-31T08:46:02;97479.17;;;30.11;42.94
62038;BME280;47991;42.974;12.082;2023-07-31T08:48:29;97482.44;;;29.61;44.07
62038;BME280;47991;42.974;12.082;2023-07-31T08:50:56;97481.83;;;29.41;43.63
62038;BME280;47991;42.974;12.082;2023-07-31T08:53:24;97479.88;;;29.39;44.64
62038;BME280;47991;42.974;12.082;2023-07-31T08:55:52;97483.67;;;29.48;44.07
62038;BME280;47991;42.974;12.082;2023-07-31T08:58:20;97480.27;;;29.43;43.40
62038;BME280;47991;42.974;12.082;2023-07-31T09:00:48;97485.54;;;29.39;43.52
62038;BME280;47991;42.974;12.082;2023-07-31T09:03:17;97487.02;;;29.78;42.91
62038;BME280;47991;42.974;12.082;2023-07-31T09:05:46;97488.48;;;30.17;41.64
62038;BME280;47991;42.974;12.082;2023-07-31T09:08:16;97486.13;;;30.51;41.61
62038;BME280;47991;42.974;12.082;2023-07-31T09:10:45;97485.35;;;30.79;40.76
62038;BME280;47991;42.974;12.082;2023-07-31T09:13:16;97483.64;;;30.75;40.04
62038;BME280;47991;42.974;12.082;2023-07-31T09:15:45;97490.35;;;30.72;40.74
62038;BME280;47991;42.974;12.082;2023-07-31T09:18:13;97491.73;;;30.68;41.74
62038;BME280;47991;42.974;12.082;2023-07-31T09:20:45;97487.45;;;30.84;41.53
62038;BME280;47991;42.974;12.082;2023-07-31T09:23:14;97482.80;;;31.01;41.19
62038;BME280;47991;42.974;12.082;2023-07-31T09:25:45;97481.79;;;31.31;40.90
62038;BME280;47991;42.974;12.082;2023-07-31T09:28:12;97479.21;;;31.55;40.28
62038;BME280;47991;42.974;12.082;2023-07-31T09:30:59;97474.09;;;31.68;39.87
62038;BME280;47991;42.974;12.082;2023-07-31T09:33:25;97471.52;;;31.58;39.70
62038;BME280;47991;42.974;12.082;2023-07-31T09:35:52;97472.73;;;31.65;40.52
62038;BME280;47991;42.974;12.082;2023-07-31T09:38:19;97471.30;;;31.83;39.13
62038;BME280;47991;42.974;12.082;2023-07-31T09:40:48;97464.84;;;32.03;39.59
62038;BME280;47991;42.974;12.082;2023-07-31T09:43:21;97468.42;;;32.22;38.84
62038;BME280;47991;42.974;12.082;2023-07-31T09:45:48;97472.98;;;32.39;38.12
62038;BME280;47991;42.974;12.082;2023-07-31T09:48:20;97465.04;;;32.57;37.95
62038;BME280;47991;42.974;12.082;2023-07-31T09:50:48;97463.59;;;32.61;37.41
62038;BME280;47991;42.974;12.082;2023-07-31T09:53:16;97465.61;;;32.53;37.91
62038;BME280;47991;42.974;12.082;2023-07-31T09:55:43;97463.35;;;32.48;36.55
62038;BME280;47991;42.974;12.082;2023-07-31T09:58:12;97461.75;;;32.48;37.33
62038;BME280;47991;42.974;12.082;2023-07-31T10:00:40;97459.59;;;32.44;36.58
62038;BME280;47991;42.974;12.082;2023-07-31T10:03:09;97459.23;;;32.43;36.50
62038;BME280;47991;42.974;12.082;2023-07-31T10:05:43;97460.10;;;32.33;36.71
62038;BME280;47991;42.974;12.082;2023-07-31T10:08:14;97458.61;;;32.20;36.71
62038;BME280;47991;42.974;12.082;2023-07-31T10:10:45;97457.11;;;32.18;37.99
62038;BME280;47991;42.974;12.082;2023-07-31T10:13:12;97449.63;;;32.36;37.10
62038;BME280;47991;42.974;12.082;2023-07-31T10:15:40;97449.02;;;32.59;36.87
62038;BME280;47991;42.974;12.082;2023-07-31T10:18:09;97443.62;;;32.85;35.89
62038;BME280;47991;42.974;12.082;2023-07-31T10:20:37;97442.73;;;33.14;35.86
62038;BME280;47991;42.974;12.082;2023-07-31T10:23:04;97443.26;;;33.18;34.35
62038;BME280;47991;42.974;12.082;2023-07-31T10:25:32;97439.65;;;33.11;32.79
62038;BME280;47991;42.974;12.082;2023-07-31T10:27:59;97441.67;;;33.12;34.36
62038;BME280;47991;42.974;12.082;2023-07-31T10:30:29;97440.75;;;32.90;35.13
62038;BME280;47991;42.974;12.082;2023-07-31T10:32:59;97441.42;;;32.64;36.81
62038;BME280;47991;42.974;12.082;2023-07-31T10:35:27;97438.05;;;32.81;35.42
62038;BME280;47991;42.974;12.082;2023-07-31T10:37:54;97437.38;;;32.96;33.74
62038;BME280;47991;42.974;12.082;2023-07-31T10:40:26;97438.98;;;33.04;33.24
62038;BME280;47991;42.974;12.082;2023-07-31T10:42:57;97442.56;;;33.24;34.30
62038;BME280;47991;42.974;12.082;2023-07-31T10:45:32;97441.71;;;33.46;33.25
62038;BME280;47991;42.974;12.082;2023-07-31T10:48:03;97441.15;;;33.64;33.04
62038;BME280;47991;42.974;12.082;2023-07-31T10:50:32;97444.34;;;33.72;32.72
62038;BME280;47991;42.974;12.082;2023-07-31T10:52:59;97437.29;;;33.74;31.57
62038;BME280;47991;42.974;12.082;2023-07-31T10:55:39;97438.14;;;33.70;31.83
62038;BME280;47991;42.974;12.082;2023-07-31T10:58:11;97437.91;;;33.60;32.07
62038;BME280;47991;42.974;12.082;2023-07-31T11:00:41;97437.67;;;33.62;31.85
62038;BME280;47991;42.974;12.082;2023-07-31T11:03:19;97433.39;;;33.66;31.33
62038;BME280;47991;42.974;12.082;2023-07-31T11:05:56;97436.44;;;33.78;32.55
62038;BME280;47991;42.974;12.082;2023-07-31T11:08:40;97437.59;;;33.76;31.23
62038;BME280;47991;42.974;12.082;2023-07-31T11:11:09;97433.89;;;33.51;31.53
62038;BME280;47991;42.974;12.082;2023-07-31T11:16:12;97428.91;;;33.56;31.47
62038;BME280;47991;42.974;12.082;2023-07-31T11:18:41;97424.64;;;33.55;32.12
62038;BME280;47991;42.974;12.082;2023-07-31T11:21:13;97422.57;;;33.69;31.37
62038;BME280;47991;42.974;12.082;2023-07-31T11:23:45;97421.89;;;33.78;30.27
62038;BME280;47991;42.974;12.082;2023-07-31T11:26:12;97421.13;;;33.80;30.30
62038;BME280;47991;42.974;12.082;2023-07-31T11:28:39;97422.22;;;33.79;30.60
62038;BME280;47991;42.974;12.082;2023-07-31T11:31:12;97415.41;;;33.88;30.56
62038;BME280;47991;42.974;12.082;2023-07-31T11:33:44;97412.27;;;33.99;29.81
62038;BME280;47991;42.974;12.082;2023-07-31T11:36:17;97412.36;;;34.08;30.00
62038;BME280;47991;42.974;12.082;2023-07-31T11:38:45;97403.91;;;34.22;29.51
62038;BME280;47991;42.974;12.082;2023-07-31T11:41:14;97397.11;;;34.32;29.02
62038;BME280;47991;42.974;12.082;2023-07-31T11:43:42;97401.32;;;34.44;29.60
62038;BME280;47991;42.974;12.082;2023-07-31T11:46:11;97398.07;;;33.71;29.21
62038;BME280;47991;42.974;12.082;2023-07-31T11:48:40;97393.98;;;33.33;29.24
62038;BME280;47991;42.974;12.082;2023-07-31T11:51:10;97390.42;;;33.42;29.04
62038;BME280;47991;42.974;12.082;2023-07-31T11:53:56;97388.39;;;33.58;29.63
62038;BME280;47991;42.974;12.082;2023-07-31T11:56:26;97381.18;;;33.78;28.58
62038;BME280;47991;42.974;12.082;2023-07-31T11:58:57;97381.55;;;34.03;28.53
62038;BME280;47991;42.974;12.082;2023-07-31T12:01:26;97380.83;;;34.20;28.33
62038;BME280;47991;42.974;12.082;2023-07-31T12:04:01;97379.42;;;34.35;28.01
62038;BME280;47991;42.974;12.082;2023-07-31T12:06:35;97378.09;;;34.51;28.48
62038;BME280;47991;42.974;12.082;2023-07-31T12:09:04;97375.96;;;34.46;28.56
62038;BME280;47991;42.974;12.082;2023-07-31T12:11:45;97372.65;;;34.35;29.56
62038;BME280;47991;42.974;12.082;2023-07-31T12:14:25;97372.35;;;34.15;28.43
62038;BME280;47991;42.974;12.082;2023-07-31T12:16:57;97369.55;;;34.14;28.26
62038;BME280;47991;42.974;12.082;2023-07-31T12:19:25;97372.77;;;34.09;28.82
62038;BME280;47991;42.974;12.082;2023-07-31T12:21:56;97370.73;;;34.05;27.90
62038;BME280;47991;42.974;12.082;2023-07-31T12:24:26;97365.52;;;34.12;27.90
62038;BME280;47991;42.974;12.082;2023-07-31T12:26:53;97362.02;;;34.25;29.04
62038;BME280;47991;42.974;12.082;2023-07-31T12:29:21;97357.65;;;34.19;28.99
62038;BME280;47991;42.974;12.082;2023-07-31T12:31:48;97359.45;;;34.10;29.18
62038;BME280;47991;42.974;12.082;2023-07-31T12:34:19;97356.05;;;34.06;28.80
62038;BME280;47991;42.974;12.082;2023-07-31T12:39:54;97348.09;;;33.76;29.70
62038;BME280;47991;42.974;12.082;2023-07-31T12:42:21;97350.05;;;33.74;30.22
62038;BME280;47991;42.974;12.082;2023-07-31T12:44:49;97344.16;;;33.85;30.14
62038;BME280;47991;42.974;12.082;2023-07-31T12:47:16;97344.52;;;33.89;30.31
62038;BME280;47991;42.974;12.082;2023-07-31T12:49:43;97340.13;;;33.98;30.20
62038;BME280;47991;42.974;12.082;2023-07-31T12:52:10;97341.29;;;34.02;30.93
62038;BME280;47991;42.974;12.082;2023-07-31T12:54:37;97334.89;;;34.17;30.07
62038;BME280;47991;42.974;12.082;2023-07-31T12:57:04;97333.79;;;34.08;29.53
62038;BME280;47991;42.974;12.082;2023-07-31T12:59:31;97338.47;;;33.71;29.65
62038;BME280;47991;42.974;12.082;2023-07-31T13:01:58;97335.05;;;33.51;28.97
62038;BME280;47991;42.974;12.082;2023-07-31T13:04:27;97339.39;;;33.39;28.56
62038;BME280;47991;42.974;12.082;2023-07-31T13:06:54;97339.61;;;33.55;29.27